sensor_id;sensor_type;location;lat;lon;timestamp;temperature;humidity
51007;DHT22;37034;47.886;-3.904;2024-03-25T00:00:34;13.80;99.90
51007;DHT22;37034;47.886;-3.904;2024-03-25T00:03:00;13.80;99.90
51007;DHT22;37034;47.886;-3.904;2024-03-25T00:05:25;13.80;99.90
51007;DHT22;37034;47.886;-3.904;2024-03-25T00:07:51;13.80;99.90
51007;DHT22;37034;47.886;-3.904;2024-03-25T00:10:18;13.80;99.90
51007;DHT22;37034;47.886;-3.904;2024-03-25T00:12:46;13.80;99.90
51007;DHT22;37034;47.886;-3.904;2024-03-25T00:15:12;13.80;99.90
51007;DHT22;37034;47.886;-3.904;2024-03-25T00:17:38;13.80;99.90
51007;DHT22;37034;47.886;-3.904;2024-03-25T00:20:04;13.80;99.90
51007;DHT22;37034;47.886;-3.904;2024-03-25T00:22:31;13.70;99.90
51007;DHT22;37034;47.886;-3.904;2024-03-25T00:24:57;13.70;99.90
51007;DHT22;37034;47.886;-3.904;2024-03-25T00:27:22;13.70;99.90
51007;DHT22;37034;47.886;-3.904;2024-03-25T00:29:48;13.70;99.90
51007;DHT22;37034;47.886;-3.904;2024-03-25T00:32:14;13.60;99.90
51007;DHT22;37034;47.886;-3.904;2024-03-25T00:34:40;13.60;99.90
51007;DHT22;37034;47.886;-3.904;2024-03-25T00:37:06;13.60;99.90
51007;DHT22;37034;47.886;-3.904;2024-03-25T00:39:31;13.50;99.90
51007;DHT22;37034;47.886;-3.904;2024-03-25T00:42:00;13.50;99.90
51007;DHT22;37034;47.886;-3.904;2024-03-25T00:44:26;13.50;99.90
51007;DHT22;37034;47.886;-3.904;2024-03-25T00:46:51;13.50;99.90
51007;DHT22;37034;47.886;-3.904;2024-03-25T00:49:17;13.50;99.90
51007;DHT22;37034;47.886;-3.904;2024-03-25T00:51:43;13.40;99.90
51007;DHT22;37034;47.886;-3.904;2024-03-25T00:54:08;13.40;99.90
51007;DHT22;37034;47.886;-3.904;2024-03-25T00:56:34;13.40;99.90
51007;DHT22;37034;47.886;-3.904;2024-03-25T00:59:00;13.40;99.90
51007;DHT22;37034;47.886;-3.904;2024-03-25T01:01:29;13.40;99.90
51007;DHT22;37034;47.886;-3.904;2024-03-25T01:03:55;13.30;99.90
51007;DHT22;37034;47.886;-3.904;2024-03-25T01:06:21;13.30;99.90
51007;DHT22;37034;47.886;-3.904;2024-03-25T01:08:46;13.40;99.90
51007;DHT22;37034;47.886;-3.904;2024-03-25T01:11:12;13.40;99.90
51007;DHT22;37034;47.886;-3.904;2024-03-25T01:13:38;13.40;99.90
51007;DHT22;37034;47.886;-3.904;2024-03-25T01:16:03;13.40;99.90
51007;DHT22;37034;47.886;-3.904;2024-03-25T01:18:29;13.40;99.90
51007;DHT22;37034;47.886;-3.904;2024-03-25T01:20:55;13.40;99.90
51007;DHT22;37034;47.886;-3.904;2024-03-25T01:23:20;13.30;99.90
51007;DHT22;37034;47.886;-3.904;2024-03-25T01:25:46;13.30;99.90
51007;DHT22;37034;47.886;-3.904;2024-03-25T01:28:12;13.30;99.90
51007;DHT22;37034;47.886;-3.904;2024-03-25T01:30:37;13.30;99.90
51007;DHT22;37034;47.886;-3.904;2024-03-25T01:33:04;13.30;99.90
51007;DHT22;37034;47.886;-3.904;2024-03-25T01:35:31;13.30;99.90
51007;DHT22;37034;47.886;-3.904;2024-03-25T01:37:56;13.30;99.90
51007;DHT22;37034;47.886;-3.904;2024-03-25T01:40:22;13.20;99.90
51007;DHT22;37034;47.886;-3.904;2024-03-25T01:43:02;13.10;99.90
51007;DHT22;37034;47.886;-3.904;2024-03-25T01:45:33;13.10;99.90
51007;DHT22;37034;47.886;-3.904;2024-03-25T01:48:02;13.20;99.90
51007;DHT22;37034;47.886;-3.904;2024-03-25T01:50:29;13.20;99.90
51007;DHT22;37034;47.886;-3.904;2024-03-25T01:52:55;13.10;99.90
51007;DHT22;37034;47.886;-3.904;2024-03-25T01:55:27;13.20;99.90
51007;DHT22;37034;47.886;-3.904;2024-03-25T01:57:53;13.10;99.90
51007;DHT22;37034;47.886;-3.904;2024-03-25T02:00:20;13.00;99.90
51007;DHT22;37034;47.886;-3.904;2024-03-25T02:02:46;12.90;99.90
51007;DHT22;37034;47.886;-3.904;2024-03-25T02:05:14;12.80;99.90
51007;DHT22;37034;47.886;-3.904;2024-03-25T02:07:40;12.80;99.90
51007;DHT22;37034;47.886;-3.904;2024-03-25T02:10:08;12.90;99.90
51007;DHT22;37034;47.886;-3.904;2024-03-25T02:12:37;13.00;99.90
51007;DHT22;37034;47.886;-3.904;2024-03-25T02:15:05;13.10;99.90
51007;DHT22;37034;47.886;-3.904;2024-03-25T02:17:31;13.00;99.90
51007;DHT22;37034;47.886;-3.904;2024-03-25T02:19:56;13.00;99.90
51007;DHT22;37034;47.886;-3.904;2024-03-25T02:22:22;13.00;99.90
51007;DHT22;37034;47.886;-3.904;2024-03-25T02:24:51;12.90;99.90
51007;DHT22;37034;47.886;-3.904;2024-03-25T02:27:18;12.80;99.90
51007;DHT22;37034;47.886;-3.904;2024-03-25T02:29:44;12.90;99.90
51007;DHT22;37034;47.886;-3.904;2024-03-25T02:32:10;13.00;99.90
51007;DHT22;37034;47.886;-3.904;2024-03-25T02:34:41;13.00;99.90
51007;DHT22;37034;47.886;-3.904;2024-03-25T02:37:06;13.00;99.90
51007;DHT22;37034;47.886;-3.904;2024-03-25T02:39:33;12.80;99.90
51007;DHT22;37034;47.886;-3.904;2024-03-25T02:41:59;12.70;99.90
51007;DHT22;37034;47.886;-3.904;2024-03-25T02:44:25;12.70;99.90
51007;DHT22;37034;47.886;-3.904;2024-03-25T02:46:52;12.70;99.90
51007;DHT22;37034;47.886;-3.904;2024-03-25T02:49:18;12.80;99.90
51007;DHT22;37034;47.886;-3.904;2024-03-25T02:51:43;12.80;99.90
51007;DHT22;37034;47.886;-3.904;2024-03-25T02:54:09;12.80;99.90
51007;DHT22;37034;47.886;-3.904;2024-03-25T02:56:35;12.80;99.90
51007;DHT22;37034;47.886;-3.904;2024-03-25T02:59:01;12.80;99.90
51007;DHT22;37034;47.886;-3.904;2024-03-25T03:01:27;12.60;99.90
51007;DHT22;37034;47.886;-3.904;2024-03-25T03:03:53;12.70;99.90
51007;DHT22;37034;47.886;-3.904;2024-03-25T03:06:18;12.90;99.90
51007;DHT22;37034;47.886;-3.904;2024-03-25T03:08:44;13.00;99.90
51007;DHT22;37034;47.886;-3.904;2024-03-25T03:11:10;13.00;99.90
51007;DHT22;37034;47.886;-3.904;2024-03-25T03:13:35;12.90;99.90
51007;DHT22;37034;47.886;-3.904;2024-03-25T03:16:01;12.90;99.90
51007;DHT22;37034;47.886;-3.904;2024-03-25T03:18:27;12.80;99.90
51007;DHT22;37034;47.886;-3.904;2024-03-25T03:20:53;12.80;99.90
51007;DHT22;37034;47.886;-3.904;2024-03-25T03:23:24;12.80;99.90
51007;DHT22;37034;47.886;-3.904;2024-03-25T03:25:50;12.80;99.90
51007;DHT22;37034;47.886;-3.904;2024-03-25T03:28:16;12.90;99.90
51007;DHT22;37034;47.886;-3.904;2024-03-25T03:30:42;12.90;99.90
51007;DHT22;37034;47.886;-3.904;2024-03-25T03:33:08;12.90;99.90
51007;DHT22;37034;47.886;-3.904;2024-03-25T03:35:34;12.70;99.90
51007;DHT22;37034;47.886;-3.904;2024-03-25T03:37:59;12.70;99.90
51007;DHT22;37034;47.886;-3.904;2024-03-25T03:40:25;12.80;99.90
51007;DHT22;37034;47.886;-3.904;2024-03-25T03:42:51;12.90;99.90
51007;DHT22;37034;47.886;-3.904;2024-03-25T03:45:16;13.00;99.90
51007;DHT22;37034;47.886;-3.904;2024-03-25T03:47:42;13.00;99.90
51007;DHT22;37034;47.886;-3.904;2024-03-25T03:50:09;13.00;99.90
51007;DHT22;37034;47.886;-3.904;2024-03-25T03:52:34;13.00;99.90
51007;DHT22;37034;47.886;-3.904;2024-03-25T03:55:00;12.90;99.90
51007;DHT22;37034;47.886;-3.904;2024-03-25T03:57:26;12.90;99.90
51007;DHT22;37034;47.886;-3.904;2024-03-25T03:59:52;12.90;99.90
51007;DHT22;37034;47.886;-3.904;2024-03-25T04:02:18;12.90;99.90
51007;DHT22;37034;47.886;-3.904;2024-03-25T04:04:43;12.90;99.90
51007;DHT22;37034;47.886;-3.904;2024-03-25T04:07:09;12.70;99.90
51007;DHT22;37034;47.886;-3.904;2024-03-25T04:09:35;12.70;99.90
51007;DHT22;37034;47.886;-3.904;2024-03-25T04:12:01;12.60;99.90
51007;DHT22;37034;47.886;-3.904;2024-03-25T04:14:27;12.60;99.90
51007;DHT22;37034;47.886;-3.904;2024-03-25T04:16:52;12.60;99.90
51007;DHT22;37034;47.886;-3.904;2024-03-25T04:19:19;12.60;99.90
51007;DHT22;37034;47.886;-3.904;2024-03-25T04:21:45;12.50;99.90
51007;DHT22;37034;47.886;-3.904;2024-03-25T04:24:11;12.50;99.90
51007;DHT22;37034;47.886;-3.904;2024-03-25T04:26:37;12.50;99.90
51007;DHT22;37034;47.886;-3.904;2024-03-25T04:29:03;12.50;99.90
51007;DHT22;37034;47.886;-3.904;2024-03-25T04:31:29;12.40;99.90
51007;DHT22;37034;47.886;-3.904;2024-03-25T04:33:55;12.40;99.90
51007;DHT22;37034;47.886;-3.904;2024-03-25T04:36:20;12.40;99.90
51007;DHT22;37034;47.886;-3.904;2024-03-25T04:38:46;12.20;99.90
51007;DHT22;37034;47.886;-3.904;2024-03-25T04:41:12;12.30;99.90
51007;DHT22;37034;47.886;-3.904;2024-03-25T04:43:37;12.40;99.90
51007;DHT22;37034;47.886;-3.904;2024-03-25T04:46:03;12.40;99.90
51007;DHT22;37034;47.886;-3.904;2024-03-25T04:48:29;12.20;99.90
51007;DHT22;37034;47.886;-3.904;2024-03-25T04:50:55;12.10;99.90
51007;DHT22;37034;47.886;-3.904;2024-03-25T04:53:20;12.20;99.90
51007;DHT22;37034;47.886;-3.904;2024-03-25T04:55:46;12.20;99.90
51007;DHT22;37034;47.886;-3.904;2024-03-25T04:58:12;12.10;99.90
51007;DHT22;37034;47.886;-3.904;2024-03-25T05:00:37;12.00;99.90
51007;DHT22;37034;47.886;-3.904;2024-03-25T05:03:03;12.00;99.90
51007;DHT22;37034;47.886;-3.904;2024-03-25T05:05:29;12.10;99.90
51007;DHT22;37034;47.886;-3.904;2024-03-25T05:07:55;12.10;99.90
51007;DHT22;37034;47.886;-3.904;2024-03-25T05:10:21;12.10;99.90
51007;DHT22;37034;47.886;-3.904;2024-03-25T05:12:46;12.10;99.90
51007;DHT22;37034;47.886;-3.904;2024-03-25T05:15:15;12.00;99.90
51007;DHT22;37034;47.886;-3.904;2024-03-25T05:17:41;12.10;99.90
51007;DHT22;37034;47.886;-3.904;2024-03-25T05:20:06;12.10;99.90
51007;DHT22;37034;47.886;-3.904;2024-03-25T05:22:32;12.20;99.90
51007;DHT22;37034;47.886;-3.904;2024-03-25T05:24:58;12.30;99.90
51007;DHT22;37034;47.886;-3.904;2024-03-25T05:27:23;12.30;99.90
51007;DHT22;37034;47.886;-3.904;2024-03-25T05:29:49;12.20;99.90
51007;DHT22;37034;47.886;-3.904;2024-03-25T05:32:15;12.10;99.90
51007;DHT22;37034;47.886;-3.904;2024-03-25T05:34:42;12.30;99.90
51007;DHT22;37034;47.886;-3.904;2024-03-25T05:37:08;12.10;99.90
51007;DHT22;37034;47.886;-3.904;2024-03-25T05:39:34;12.20;99.90
51007;DHT22;37034;47.886;-3.904;2024-03-25T05:41:59;12.20;99.90
51007;DHT22;37034;47.886;-3.904;2024-03-25T05:44:25;12.10;99.90
51007;DHT22;37034;47.886;-3.904;2024-03-25T05:46:50;12.00;99.90
51007;DHT22;37034;47.886;-3.904;2024-03-25T05:49:16;12.00;99.90
51007;DHT22;37034;47.886;-3.904;2024-03-25T05:51:42;12.00;99.90
51007;DHT22;37034;47.886;-3.904;2024-03-25T05:54:07;12.00;99.90
51007;DHT22;37034;47.886;-3.904;2024-03-25T05:56:33;12.10;99.90
51007;DHT22;37034;47.886;-3.904;2024-03-25T05:59:00;12.00;99.90
51007;DHT22;37034;47.886;-3.904;2024-03-25T06:01:26;12.00;99.90
51007;DHT22;37034;47.886;-3.904;2024-03-25T06:03:52;12.10;99.90
51007;DHT22;37034;47.886;-3.904;2024-03-25T06:06:18;12.20;99.90
51007;DHT22;37034;47.886;-3.904;2024-03-25T06:08:43;12.10;99.90
51007;DHT22;37034;47.886;-3.904;2024-03-25T06:11:09;12.00;99.90
51007;DHT22;37034;47.886;-3.904;2024-03-25T06:13:35;12.00;99.90
51007;DHT22;37034;47.886;-3.904;2024-03-25T06:16:01;12.00;99.90
51007;DHT22;37034;47.886;-3.904;2024-03-25T06:18:26;12.00;99.90
51007;DHT22;37034;47.886;-3.904;2024-03-25T06:20:52;11.90;99.90
51007;DHT22;37034;47.886;-3.904;2024-03-25T06:23:25;11.90;99.90
51007;DHT22;37034;47.886;-3.904;2024-03-25T06:25:52;11.90;99.90
51007;DHT22;37034;47.886;-3.904;2024-03-25T06:28:18;12.00;99.90
51007;DHT22;37034;47.886;-3.904;2024-03-25T06:30:48;12.00;99.90
51007;DHT22;37034;47.886;-3.904;2024-03-25T06:33:33;12.10;99.90
51007;DHT22;37034;47.886;-3.904;2024-03-25T06:36:18;12.10;99.90
51007;DHT22;37034;47.886;-3.904;2024-03-25T06:38:44;11.90;99.90
51007;DHT22;37034;47.886;-3.904;2024-03-25T06:41:09;11.90;99.90
51007;DHT22;37034;47.886;-3.904;2024-03-25T06:43:36;11.80;99.90
51007;DHT22;37034;47.886;-3.904;2024-03-25T06:46:03;11.90;99.90
51007;DHT22;37034;47.886;-3.904;2024-03-25T06:48:29;11.90;99.90
51007;DHT22;37034;47.886;-3.904;2024-03-25T06:50:56;11.90;99.90
51007;DHT22;37034;47.886;-3.904;2024-03-25T06:53:22;11.80;99.90
51007;DHT22;37034;47.886;-3.904;2024-03-25T06:55:55;11.80;99.90
51007;DHT22;37034;47.886;-3.904;2024-03-25T06:58:23;11.90;99.90
51007;DHT22;37034;47.886;-3.904;2024-03-25T07:00:49;11.90;99.90
51007;DHT22;37034;47.886;-3.904;2024-03-25T07:03:18;11.90;99.90
51007;DHT22;37034;47.886;-3.904;2024-03-25T07:05:45;11.90;99.90
51007;DHT22;37034;47.886;-3.904;2024-03-25T07:08:12;12.00;99.90
51007;DHT22;37034;47.886;-3.904;2024-03-25T07:10:38;11.90;99.90
51007;DHT22;37034;47.886;-3.904;2024-03-25T07:13:04;11.90;99.90
51007;DHT22;37034;47.886;-3.904;2024-03-25T07:15:31;11.90;99.90
51007;DHT22;37034;47.886;-3.904;2024-03-25T07:17:56;11.80;99.90
51007;DHT22;37034;47.886;-3.904;2024-03-25T07:20:23;11.90;99.90
51007;DHT22;37034;47.886;-3.904;2024-03-25T07:22:48;12.00;99.90
51007;DHT22;37034;47.886;-3.904;2024-03-25T07:25:14;12.10;99.90
51007;DHT22;37034;47.886;-3.904;2024-03-25T07:27:40;12.10;99.90
51007;DHT22;37034;47.886;-3.904;2024-03-25T07:30:07;12.00;99.90
51007;DHT22;37034;47.886;-3.904;2024-03-25T07:32:34;12.10;99.90
51007;DHT22;37034;47.886;-3.904;2024-03-25T07:35:00;12.10;99.90
51007;DHT22;37034;47.886;-3.904;2024-03-25T07:37:25;12.10;99.90
51007;DHT22;37034;47.886;-3.904;2024-03-25T07:39:52;12.10;99.90
51007;DHT22;37034;47.886;-3.904;2024-03-25T07:42:18;12.20;99.90
51007;DHT22;37034;47.886;-3.904;2024-03-25T07:44:43;12.30;99.90
51007;DHT22;37034;47.886;-3.904;2024-03-25T07:47:09;12.50;99.90
51007;DHT22;37034;47.886;-3.904;2024-03-25T07:49:35;12.50;99.90
51007;DHT22;37034;47.886;-3.904;2024-03-25T07:52:01;12.50;99.90
51007;DHT22;37034;47.886;-3.904;2024-03-25T07:54:27;12.50;99.90
51007;DHT22;37034;47.886;-3.904;2024-03-25T07:56:53;12.60;99.90
51007;DHT22;37034;47.886;-3.904;2024-03-25T07:59:18;12.50;99.90
51007;DHT22;37034;47.886;-3.904;2024-03-25T08:01:44;12.50;99.90
51007;DHT22;37034;47.886;-3.904;2024-03-25T08:04:10;12.50;99.90
51007;DHT22;37034;47.886;-3.904;2024-03-25T08:06:36;12.50;99.90
51007;DHT22;37034;47.886;-3.904;2024-03-25T08:09:01;12.30;99.90
51007;DHT22;37034;47.886;-3.904;2024-03-25T08:11:30;12.30;99.90
51007;DHT22;37034;47.886;-3.904;2024-03-25T08:13:56;12.40;99.90
51007;DHT22;37034;47.886;-3.904;2024-03-25T08:16:22;12.30;99.90
51007;DHT22;37034;47.886;-3.904;2024-03-25T08:18:48;12.30;99.90
51007;DHT22;37034;47.886;-3.904;2024-03-25T08:21:13;12.30;99.90
51007;DHT22;37034;47.886;-3.904;2024-03-25T08:23:39;12.30;99.90
51007;DHT22;37034;47.886;-3.904;2024-03-25T08:26:06;12.40;99.90
51007;DHT22;37034;47.886;-3.904;2024-03-25T08:28:32;12.20;99.90
51007;DHT22;37034;47.886;-3.904;2024-03-25T08:30:58;12.40;99.90
51007;DHT22;37034;47.886;-3.904;2024-03-25T08:33:24;12.60;99.90
51007;DHT22;37034;47.886;-3.904;2024-03-25T08:35:49;12.70;99.90
51007;DHT22;37034;47.886;-3.904;2024-03-25T08:38:15;12.70;99.90
51007;DHT22;37034;47.886;-3.904;2024-03-25T08:40:40;12.70;99.90
51007;DHT22;37034;47.886;-3.904;2024-03-25T08:43:06;12.60;99.90
51007;DHT22;37034;47.886;-3.904;2024-03-25T08:45:32;12.50;99.90
51007;DHT22;37034;47.886;-3.904;2024-03-25T08:47:58;12.50;99.90
51007;DHT22;37034;47.886;-3.904;2024-03-25T08:50:23;12.50;99.90
51007;DHT22;37034;47.886;-3.904;2024-03-25T08:52:49;12.60;99.90
51007;DHT22;37034;47.886;-3.904;2024-03-25T08:55:15;12.70;99.90
51007;DHT22;37034;47.886;-3.904;2024-03-25T08:57:41;12.70;99.90
51007;DHT22;37034;47.886;-3.904;2024-03-25T09:00:07;12.80;99.90
51007;DHT22;37034;47.886;-3.904;2024-03-25T09:02:36;13.00;99.90
51007;DHT22;37034;47.886;-3.904;2024-03-25T09:05:02;13.10;99.90
51007;DHT22;37034;47.886;-3.904;2024-03-25T09:07:35;13.00;99.90
51007;DHT22;37034;47.886;-3.904;2024-03-25T09:10:00;13.00;99.90
51007;DHT22;37034;47.886;-3.904;2024-03-25T09:12:45;12.90;99.90
51007;DHT22;37034;47.886;-3.904;2024-03-25T09:15:10;13.00;99.90
51007;DHT22;37034;47.886;-3.904;2024-03-25T09:17:36;13.00;99.90
51007;DHT22;37034;47.886;-3.904;2024-03-25T09:20:02;12.60;99.90
51007;DHT22;37034;47.886;-3.904;2024-03-25T09:22:46;12.40;99.90
51007;DHT22;37034;47.886;-3.904;2024-03-25T09:25:12;12.30;99.90
51007;DHT22;37034;47.886;-3.904;2024-03-25T09:27:39;12.10;99.90
51007;DHT22;37034;47.886;-3.904;2024-03-25T09:30:05;12.20;99.90
51007;DHT22;37034;47.886;-3.904;2024-03-25T09:32:31;12.20;99.90
51007;DHT22;37034;47.886;-3.904;2024-03-25T09:34:57;12.30;99.90
51007;DHT22;37034;47.886;-3.904;2024-03-25T09:37:23;12.30;99.90
51007;DHT22;37034;47.886;-3.904;2024-03-25T09:39:49;12.30;99.90
51007;DHT22;37034;47.886;-3.904;2024-03-25T09:42:15;12.40;99.90
51007;DHT22;37034;47.886;-3.904;2024-03-25T09:44:44;12.50;99.90
51007;DHT22;37034;47.886;-3.904;2024-03-25T09:47:10;12.40;99.90
51007;DHT22;37034;47.886;-3.904;2024-03-25T09:49:40;12.50;99.90
51007;DHT22;37034;47.886;-3.904;2024-03-25T09:52:07;12.60;99.90
51007;DHT22;37034;47.886;-3.904;2024-03-25T09:54:33;12.70;99.90
51007;DHT22;37034;47.886;-3.904;2024-03-25T09:57:00;12.80;99.90
51007;DHT22;37034;47.886;-3.904;2024-03-25T09:59:26;12.90;99.90
51007;DHT22;37034;47.886;-3.904;2024-03-25T10:01:53;12.80;99.90
51007;DHT22;37034;47.886;-3.904;2024-03-25T10:04:19;12.70;99.90
51007;DHT22;37034;47.886;-3.904;2024-03-25T10:06:45;12.50;99.90
51007;DHT22;37034;47.886;-3.904;2024-03-25T10:09:11;12.60;99.90
51007;DHT22;37034;47.886;-3.904;2024-03-25T10:11:36;12.80;99.90
51007;DHT22;37034;47.886;-3.904;2024-03-25T10:14:02;12.80;99.90
51007;DHT22;37034;47.886;-3.904;2024-03-25T10:16:28;12.70;99.90
51007;DHT22;37034;47.886;-3.904;2024-03-25T10:18:54;12.80;99.90
51007;DHT22;37034;47.886;-3.904;2024-03-25T10:21:22;12.90;99.90
51007;DHT22;37034;47.886;-3.904;2024-03-25T10:23:48;12.90;99.90
51007;DHT22;37034;47.886;-3.904;2024-03-25T10:26:27;12.80;99.90
51007;DHT22;37034;47.886;-3.904;2024-03-25T10:29:02;12.60;99.90
51007;DHT22;37034;47.886;-3.904;2024-03-25T10:31:28;12.50;99.90
51007;DHT22;37034;47.886;-3.904;2024-03-25T10:33:54;12.70;99.90
51007;DHT22;37034;47.886;-3.904;2024-03-25T10:36:21;12.50;99.90
51007;DHT22;37034;47.886;-3.904;2024-03-25T10:38:49;12.50;99.90
51007;DHT22;37034;47.886;-3.904;2024-03-25T10:41:17;12.30;99.90
51007;DHT22;37034;47.886;-3.904;2024-03-25T10:43:46;12.20;99.90
51007;DHT22;37034;47.886;-3.904;2024-03-25T10:46:18;12.40;99.90
51007;DHT22;37034;47.886;-3.904;2024-03-25T10:48:55;12.50;99.90
51007;DHT22;37034;47.886;-3.904;2024-03-25T10:51:23;12.50;99.90
51007;DHT22;37034;47.886;-3.904;2024-03-25T10:53:51;12.40;99.90
51007;DHT22;37034;47.886;-3.904;2024-03-25T10:56:20;12.50;99.90
51007;DHT22;37034;47.886;-3.904;2024-03-25T10:58:48;12.70;99.90
51007;DHT22;37034;47.886;-3.904;2024-03-25T11:01:16;12.70;99.90
51007;DHT22;37034;47.886;-3.904;2024-03-25T11:03:42;12.50;99.90
51007;DHT22;37034;47.886;-3.904;2024-03-25T11:06:08;12.50;99.90
51007;DHT22;37034;47.886;-3.904;2024-03-25T11:08:33;12.50;99.90
51007;DHT22;37034;47.886;-3.904;2024-03-25T11:11:00;12.30;99.90
51007;DHT22;37034;47.886;-3.904;2024-03-25T11:13:27;12.30;99.90
51007;DHT22;37034;47.886;-3.904;2024-03-25T11:15:53;12.10;99.90
51007;DHT22;37034;47.886;-3.904;2024-03-25T11:18:22;12.00;99.90
51007;DHT22;37034;47.886;-3.904;2024-03-25T11:21:04;11.90;99.90
51007;DHT22;37034;47.886;-3.904;2024-03-25T11:23:40;11.80;99.90
51007;DHT22;37034;47.886;-3.904;2024-03-25T11:26:25;11.70;99.90
51007;DHT22;37034;47.886;-3.904;2024-03-25T11:28:52;11.80;99.90
51007;DHT22;37034;47.886;-3.904;2024-03-25T11:31:20;11.90;99.90
51007;DHT22;37034;47.886;-3.904;2024-03-25T11:33:47;11.80;99.90
51007;DHT22;37034;47.886;-3.904;2024-03-25T11:36:13;11.80;99.90
51007;DHT22;37034;47.886;-3.904;2024-03-25T11:38:38;11.70;99.90
51007;DHT22;37034;47.886;-3.904;2024-03-25T11:41:07;11.90;99.90
51007;DHT22;37034;47.886;-3.904;2024-03-25T11:43:33;12.10;99.90
51007;DHT22;37034;47.886;-3.904;2024-03-25T11:45:59;12.20;99.90
51007;DHT22;37034;47.886;-3.904;2024-03-25T11:48:24;12.10;99.90
51007;DHT22;37034;47.886;-3.904;2024-03-25T11:50:50;11.80;99.90
51007;DHT22;37034;47.886;-3.904;2024-03-25T11:53:16;11.70;99.90
51007;DHT22;37034;47.886;-3.904;2024-03-25T11:55:48;11.60;99.90
51007;DHT22;37034;47.886;-3.904;2024-03-25T11:58:15;11.70;99.90
51007;DHT22;37034;47.886;-3.904;2024-03-25T12:00:47;11.60;99.90
51007;DHT22;37034;47.886;-3.904;2024-03-25T12:03:17;11.60;99.90
51007;DHT22;37034;47.886;-3.904;2024-03-25T12:05:46;11.70;99.90
51007;DHT22;37034;47.886;-3.904;2024-03-25T12:08:11;11.70;99.90
51007;DHT22;37034;47.886;-3.904;2024-03-25T12:10:39;11.70;99.90
51007;DHT22;37034;47.886;-3.904;2024-03-25T12:13:25;11.70;99.90
51007;DHT22;37034;47.886;-3.904;2024-03-25T12:15:51;11.90;99.90
51007;DHT22;37034;47.886;-3.904;2024-03-25T12:18:17;12.00;99.90
51007;DHT22;37034;47.886;-3.904;2024-03-25T12:20:46;12.00;99.90
51007;DHT22;37034;47.886;-3.904;2024-03-25T12:23:12;12.00;99.90
51007;DHT22;37034;47.886;-3.904;2024-03-25T12:25:38;12.10;99.90
51007;DHT22;37034;47.886;-3.904;2024-03-25T12:28:13;12.10;99.90
51007;DHT22;37034;47.886;-3.904;2024-03-25T12:30:50;12.10;99.90
51007;DHT22;37034;47.886;-3.904;2024-03-25T12:33:16;12.10;99.90
51007;DHT22;37034;47.886;-3.904;2024-03-25T12:35:45;12.20;99.90
51007;DHT22;37034;47.886;-3.904;2024-03-25T12:38:28;12.20;99.90
51007;DHT22;37034;47.886;-3.904;2024-03-25T12:41:02;12.20;99.90
51007;DHT22;37034;47.886;-3.904;2024-03-25T12:43:30;12.20;99.90
51007;DHT22;37034;47.886;-3.904;2024-03-25T12:45:57;12.10;99.90
51007;DHT22;37034;47.886;-3.904;2024-03-25T12:48:23;12.00;99.90
51007;DHT22;37034;47.886;-3.904;2024-03-25T12:50:49;12.10;99.90
51007;DHT22;37034;47.886;-3.904;2024-03-25T12:53:17;12.10;99.90
51007;DHT22;37034;47.886;-3.904;2024-03-25T12:55:44;12.10;99.90
51007;DHT22;37034;47.886;-3.904;2024-03-25T12:58:09;12.20;99.90
51007;DHT22;37034;47.886;-3.904;2024-03-25T13:00:35;12.10;99.90
51007;DHT22;37034;47.886;-3.904;2024-03-25T13:03:00;11.90;99.90
51007;DHT22;37034;47.886;-3.904;2024-03-25T13:05:27;11.70;99.90
51007;DHT22;37034;47.886;-3.904;2024-03-25T13:07:54;11.70;99.90
51007;DHT22;37034;47.886;-3.904;2024-03-25T13:10:20;11.70;99.90
51007;DHT22;37034;47.886;-3.904;2024-03-25T13:12:46;11.70;99.90
51007;DHT22;37034;47.886;-3.904;2024-03-25T13:15:11;11.70;99.90
51007;DHT22;37034;47.886;-3.904;2024-03-25T13:17:37;11.60;99.90
51007;DHT22;37034;47.886;-3.904;2024-03-25T13:20:03;11.70;99.90
51007;DHT22;37034;47.886;-3.904;2024-03-25T13:22:29;11.60;99.90
51007;DHT22;37034;47.886;-3.904;2024-03-25T13:24:57;11.70;99.90
51007;DHT22;37034;47.886;-3.904;2024-03-25T13:27:22;11.60;99.90
51007;DHT22;37034;47.886;-3.904;2024-03-25T13:29:48;11.70;99.90
51007;DHT22;37034;47.886;-3.904;2024-03-25T13:32:14;11.70;99.90
51007;DHT22;37034;47.886;-3.904;2024-03-25T13:34:39;11.70;99.90
51007;DHT22;37034;47.886;-3.904;2024-03-25T13:37:05;11.80;99.90
51007;DHT22;37034;47.886;-3.904;2024-03-25T13:39:31;11.90;99.90
51007;DHT22;37034;47.886;-3.904;2024-03-25T13:41:57;11.90;99.90
51007;DHT22;37034;47.886;-3.904;2024-03-25T13:44:23;12.00;99.90
51007;DHT22;37034;47.886;-3.904;2024-03-25T13:46:50;12.00;99.90
51007;DHT22;37034;47.886;-3.904;2024-03-25T13:49:16;12.10;99.90
51007;DHT22;37034;47.886;-3.904;2024-03-25T13:51:44;12.00;99.90
51007;DHT22;37034;47.886;-3.904;2024-03-25T13:54:09;12.00;99.90
51007;DHT22;37034;47.886;-3.904;2024-03-25T13:56:35;11.90;99.90
51007;DHT22;37034;47.886;-3.904;2024-03-25T13:59:00;11.90;99.90
51007;DHT22;37034;47.886;-3.904;2024-03-25T14:01:26;12.00;99.90
51007;DHT22;37034;47.886;-3.904;2024-03-25T14:03:52;12.00;99.90
51007;DHT22;37034;47.886;-3.904;2024-03-25T14:06:17;12.00;99.90
51007;DHT22;37034;47.886;-3.904;2024-03-25T14:08:43;12.00;99.90
51007;DHT22;37034;47.886;-3.904;2024-03-25T14:11:10;12.10;99.90
51007;DHT22;37034;47.886;-3.904;2024-03-25T14:13:36;12.20;99.90
51007;DHT22;37034;47.886;-3.904;2024-03-25T14:16:02;12.40;99.90
51007;DHT22;37034;47.886;-3.904;2024-03-25T14:18:27;12.50;99.90
51007;DHT22;37034;47.886;-3.904;2024-03-25T14:20:53;12.60;99.90
51007;DHT22;37034;47.886;-3.904;2024-03-25T14:23:19;12.70;99.90
51007;DHT22;37034;47.886;-3.904;2024-03-25T14:25:45;12.60;99.90
51007;DHT22;37034;47.886;-3.904;2024-03-25T14:28:10;12.50;99.90
51007;DHT22;37034;47.886;-3.904;2024-03-25T14:30:36;12.60;99.90
51007;DHT22;37034;47.886;-3.904;2024-03-25T14:33:02;12.50;99.90
51007;DHT22;37034;47.886;-3.904;2024-03-25T14:35:28;12.40;99.90
51007;DHT22;37034;47.886;-3.904;2024-03-25T14:37:53;12.30;99.90
51007;DHT22;37034;47.886;-3.904;2024-03-25T14:40:19;12.40;99.90
51007;DHT22;37034;47.886;-3.904;2024-03-25T14:42:45;12.30;99.90
51007;DHT22;37034;47.886;-3.904;2024-03-25T14:45:11;12.40;99.90
51007;DHT22;37034;47.886;-3.904;2024-03-25T14:47:36;12.50;99.90
51007;DHT22;37034;47.886;-3.904;2024-03-25T14:50:02;12.50;99.90
51007;DHT22;37034;47.886;-3.904;2024-03-25T14:52:30;12.50;99.90
51007;DHT22;37034;47.886;-3.904;2024-03-25T14:54:56;12.50;99.90
51007;DHT22;37034;47.886;-3.904;2024-03-25T14:57:22;12.40;99.90
51007;DHT22;37034;47.886;-3.904;2024-03-25T14:59:47;12.30;99.90
51007;DHT22;37034;47.886;-3.904;2024-03-25T15:02:13;12.30;99.90
51007;DHT22;37034;47.886;-3.904;2024-03-25T15:04:39;12.40;99.90
51007;DHT22;37034;47.886;-3.904;2024-03-25T15:07:10;12.40;99.90
51007;DHT22;37034;47.886;-3.904;2024-03-25T15:09:35;12.30;99.90
51007;DHT22;37034;47.886;-3.904;2024-03-25T15:12:01;12.10;99.90